Time;durP1;ratioP1;P1;durP2;ratioP2;P2;SDS_P1;SDS_P2;PMS_P1;PMS_P2;Temp;Humidity;BMP_temperature;BMP_pressure;BME280_temperature;BME280_humidity;BME280_pressure;Samples;Min_cycle;Max_cycle;Signal;HPM_P1;HPM_P2
2023/04/28 00:01:44;;;;;;;7.22;4.90;;;;;;;;;;5093290;28;20070;-69
2023/04/28 00:04:10;;;;;;;9.38;4.38;;;;;;;;;;5091345;28;20100;-69
2023/04/28 00:06:36;;;;;;;7.38;4.50;;;;;;;;;;5095173;28;20047;-69
2023/04/28 00:09:02;;;;;;;8.75;4.68;;;;;;;;;;5090549;28;20589;-69
2023/04/28 00:11:28;;;;;;;5.03;4.32;;;;;;;;;;5100802;28;20501;-69
2023/04/28 00:13:55;;;;;;;6.70;4.03;;;;;;;;;;5104747;28;20038;-70
2023/04/28 00:16:21;;;;;;;7.00;4.63;;;;;;;;;;5100487;28;20039;-70
2023/04/28 00:18:47;;;;;;;7.32;4.68;;;;;;;;;;5098298;28;20044;-69
2023/04/28 00:21:13;;;;;;;7.18;4.97;;;;;;;;;;5098652;28;20040;-69
2023/04/28 00:23:39;;;;;;;8.02;5.50;;;;;;;;;;5096420;28;20123;-70
2023/04/28 00:26:05;;;;;;;7.75;4.65;;;;;;;;;;5106634;28;20100;-69
2023/04/28 00:28:31;;;;;;;7.78;4.70;;;;;;;;;;5105344;28;20071;-70
2023/04/28 00:30:57;;;;;;;8.70;4.70;;;;;;;;;;5103938;28;20122;-70
2023/04/28 00:33:24;;;;;;;8.35;5.43;;;;;;;;;;5100838;28;20126;-70
2023/04/28 00:35:50;;;;;;;8.35;5.00;;;;;;;;;;5094998;28;20072;-70
2023/04/28 00:38:16;;;;;;;8.57;5.15;;;;;;;;;;5106748;28;20036;-70
2023/04/28 00:40:42;;;;;;;8.07;5.07;;;;;;;;;;5095394;28;20521;-70
2023/04/28 00:43:08;;;;;;;7.53;5.63;;;;;;;;;;5091709;28;20641;-70
2023/04/28 00:45:34;;;;;;;7.45;4.88;;;;;;;;;;5091009;28;20489;-69
2023/04/28 00:48:01;;;;;;;7.13;5.03;;;;;;;;;;5096325;28;20048;-69
2023/04/28 00:50:28;;;;;;;11.15;5.38;;;;;;;;;;5098800;28;20527;-71
2023/04/28 00:52:54;;;;;;;9.55;6.07;;;;;;;;;;5100072;28;20032;-70
2023/04/28 00:55:21;;;;;;;8.82;5.00;;;;;;;;;;5090451;28;20596;-69
2023/04/28 00:57:47;;;;;;;8.45;5.57;;;;;;;;;;5092013;28;20047;-69
2023/04/28 01:00:14;;;;;;;10.07;5.68;;;;;;;;;;5099991;28;20039;-69
2023/04/28 01:02:41;;;;;;;11.20;5.45;;;;;;;;;;5103607;28;20118;-69
2023/04/28 01:05:08;;;;;;;9.48;4.85;;;;;;;;;;5095496;28;20544;-69
2023/04/28 01:07:34;;;;;;;7.55;4.82;;;;;;;;;;5089621;28;20040;-69
2023/04/28 01:10:00;;;;;;;9.15;5.88;;;;;;;;;;5106092;28;20036;-70
2023/04/28 01:12:26;;;;;;;12.07;5.82;;;;;;;;;;5093007;28;20036;-70
2023/04/28 01:14:52;;;;;;;8.93;6.05;;;;;;;;;;5095064;28;20127;-69
2023/04/28 01:17:19;;;;;;;8.27;5.20;;;;;;;;;;5097967;28;20035;-69
2023/04/28 01:19:45;;;;;;;9.90;5.93;;;;;;;;;;5097561;28;20062;-69
2023/04/28 01:22:14;;;;;;;9.52;5.80;;;;;;;;;;5095433;28;20036;-70
2023/04/28 01:24:40;;;;;;;7.75;5.50;;;;;;;;;;5088834;28;20047;-69
2023/04/28 01:27:06;;;;;;;9.30;6.25;;;;;;;;;;5091076;28;20032;-69
2023/04/28 01:29:32;;;;;;;8.85;5.35;;;;;;;;;;5096634;28;20105;-69
2023/04/28 01:31:58;;;;;;;8.82;6.07;;;;;;;;;;5094374;28;20332;-69
2023/04/28 01:34:25;;;;;;;9.32;6.18;;;;;;;;;;5101407;28;20470;-70
2023/04/28 01:36:51;;;;;;;9.35;5.70;;;;;;;;;;5088908;28;20420;-70
2023/04/28 01:39:17;;;;;;;9.13;5.68;;;;;;;;;;5091419;28;20116;-70
2023/04/28 01:41:44;;;;;;;8.43;5.82;;;;;;;;;;5095579;28;20122;-69
2023/04/28 01:44:11;;;;;;;8.32;5.85;;;;;;;;;;5091130;28;20040;-69
2023/04/28 01:46:38;;;;;;;11.43;5.28;;;;;;;;;;5106759;28;20545;-69
2023/04/28 01:49:04;;;;;;;7.57;5.10;;;;;;;;;;5100472;28;20421;-69
2023/04/28 01:51:31;;;;;;;13.05;5.47;;;;;;;;;;5104552;28;20083;-69
2023/04/28 01:53:57;;;;;;;10.75;5.13;;;;;;;;;;5091980;28;20131;-69
2023/04/28 01:56:23;;;;;;;8.18;5.57;;;;;;;;;;5094901;28;20405;-68
2023/04/28 01:58:50;;;;;;;7.35;5.13;;;;;;;;;;5092877;28;20050;-69
2023/04/28 02:01:16;;;;;;;9.20;6.20;;;;;;;;;;5090877;28;20085;-70
2023/04/28 02:03:42;;;;;;;9.15;6.35;;;;;;;;;;5092881;28;20039;-68
2023/04/28 02:06:09;;;;;;;10.32;5.78;;;;;;;;;;5101530;28;20035;-69
2023/04/28 02:08:35;;;;;;;9.45;7.10;;;;;;;;;;5092951;28;20082;-69
2023/04/28 02:11:02;;;;;;;9.93;6.10;;;;;;;;;;5092755;28;20512;-69
2023/04/28 02:13:29;;;;;;;7.88;5.35;;;;;;;;;;5103803;28;20040;-69
2023/04/28 02:15:55;;;;;;;11.13;6.63;;;;;;;;;;5096331;28;20046;-68
2023/04/28 02:18:21;;;;;;;8.73;5.72;;;;;;;;;;5094460;28;20058;-68
2023/04/28 02:20:47;;;;;;;10.63;6.40;;;;;;;;;;5104753;28;20095;-69
2023/04/28 02:23:13;;;;;;;8.60;5.93;;;;;;;;;;5101427;28;20067;-69
2023/04/28 02:25:39;;;;;;;11.18;5.88;;;;;;;;;;5099312;28;20049;-69
2023/04/28 02:28:06;;;;;;;12.02;5.43;;;;;;;;;;5092002;28;20482;-70
2023/04/28 02:30:32;;;;;;;8.57;5.47;;;;;;;;;;5093849;28;20116;-69
2023/04/28 02:32:58;;;;;;;9.15;5.35;;;;;;;;;;5097999;28;20036;-69
2023/04/28 02:35:24;;;;;;;7.88;5.50;;;;;;;;;;5093433;28;20035;-69
2023/04/28 02:37:51;;;;;;;10.75;6.43;;;;;;;;;;5106539;28;20047;-70
2023/04/28 02:40:17;;;;;;;10.30;6.28;;;;;;;;;;5100727;28;20564;-70
2023/04/28 02:42:43;;;;;;;13.82;6.65;;;;;;;;;;5094827;28;20079;-69
2023/04/28 02:45:10;;;;;;;10.90;5.82;;;;;;;;;;5096807;28;20051;-69
2023/04/28 02:47:36;;;;;;;10.75;6.20;;;;;;;;;;5101674;28;20085;-68
2023/04/28 02:50:02;;;;;;;10.15;5.53;;;;;;;;;;5106993;28;20059;-70
2023/04/28 02:52:28;;;;;;;10.55;6.05;;;;;;;;;;5103503;28;20457;-68
2023/04/28 02:54:56;;;;;;;12.48;6.80;;;;;;;;;;5096515;28;20047;-69
2023/04/28 02:57:23;;;;;;;10.68;6.85;;;;;;;;;;5110383;28;20580;-68
2023/04/28 02:59:49;;;;;;;8.48;6.00;;;;;;;;;;5102042;28;20180;-69
2023/04/28 03:02:15;;;;;;;9.25;6.30;;;;;;;;;;5105018;28;20043;-69
2023/04/28 03:04:42;;;;;;;11.18;7.22;;;;;;;;;;5097556;28;20088;-69
2023/04/28 03:07:08;;;;;;;10.35;6.13;;;;;;;;;;5097343;28;20047;-69
2023/04/28 03:09:34;;;;;;;13.82;6.90;;;;;;;;;;5099367;28;20079;-69
2023/04/28 03:12:02;;;;;;;9.65;6.80;;;;;;;;;;5096333;28;20169;-69
2023/04/28 03:14:28;;;;;;;12.20;7.40;;;;;;;;;;5095406;28;20051;-69
2023/04/28 03:16:55;;;;;;;11.18;7.65;;;;;;;;;;5101831;27;20059;-69
2023/04/28 03:19:21;;;;;;;9.70;6.53;;;;;;;;;;5098025;28;20413;-69
2023/04/28 03:21:47;;;;;;;11.98;7.40;;;;;;;;;;5095725;28;20051;-69
2023/04/28 03:24:13;;;;;;;11.23;6.80;;;;;;;;;;5093222;28;20050;-69
2023/04/28 03:26:39;;;;;;;9.77;6.63;;;;;;;;;;5096341;28;20044;-70
2023/04/28 03:29:05;;;;;;;12.45;7.43;;;;;;;;;;5095920;28;20066;-69
2023/04/28 03:31:31;;;;;;;11.93;8.50;;;;;;;;;;5092824;28;20349;-69
2023/04/28 03:33:58;;;;;;;14.52;7.40;;;;;;;;;;5104565;28;20027;-69
2023/04/28 03:36:25;;;;;;;13.52;7.93;;;;;;;;;;5090137;28;20093;-70
2023/04/28 03:38:52;;;;;;;11.10;8.02;;;;;;;;;;5098196;28;20048;-68
2023/04/28 03:41:18;;;;;;;11.30;7.18;;;;;;;;;;5097461;28;20039;-69
2023/04/28 03:43:44;;;;;;;17.33;8.60;;;;;;;;;;5093010;28;20051;-69
2023/04/28 03:46:10;;;;;;;14.02;7.25;;;;;;;;;;5103419;28;20041;-69
2023/04/28 03:48:36;;;;;;;11.00;7.43;;;;;;;;;;5100056;28;20060;-69
2023/04/28 03:51:02;;;;;;;13.98;8.65;;;;;;;;;;5105098;28;20039;-69
2023/04/28 03:53:29;;;;;;;12.27;8.20;;;;;;;;;;5094325;28;20294;-69
2023/04/28 03:55:55;;;;;;;15.07;8.32;;;;;;;;;;5093786;28;20189;-69
2023/04/28 03:58:21;;;;;;;14.25;9.43;;;;;;;;;;5098781;28;20123;-69
2023/04/28 04:00:47;;;;;;;18.08;10.73;;;;;;;;;;5091190;28;20036;-68
2023/04/28 04:03:13;;;;;;;13.98;8.68;;;;;;;;;;5093502;28;20047;-70
2023/04/28 04:05:40;;;;;;;13.50;9.00;;;;;;;;;;5101259;28;20036;-70
2023/04/28 04:08:06;;;;;;;14.90;10.88;;;;;;;;;;5094862;28;20094;-68
2023/04/28 04:10:32;;;;;;;15.20;9.70;;;;;;;;;;5090462;28;20111;-68
2023/04/28 04:12:58;;;;;;;15.85;10.13;;;;;;;;;;5100671;28;20043;-69
2023/04/28 04:15:24;;;;;;;18.05;9.93;;;;;;;;;;5094965;28;20474;-69
2023/04/28 04:17:51;;;;;;;16.15;11.00;;;;;;;;;;5105210;28;20031;-69
2023/04/28 04:20:17;;;;;;;14.88;10.30;;;;;;;;;;5091564;28;20043;-68
2023/04/28 04:22:43;;;;;;;16.92;9.93;;;;;;;;;;5099683;28;20490;-67
2023/04/28 04:25:09;;;;;;;18.83;9.82;;;;;;;;;;5105506;28;20050;-68
2023/04/28 04:27:35;;;;;;;15.68;10.73;;;;;;;;;;5089919;28;20071;-68
2023/04/28 04:30:01;;;;;;;16.90;10.80;;;;;;;;;;5095787;28;20428;-68
2023/04/28 04:32:28;;;;;;;15.13;9.07;;;;;;;;;;5101594;28;20047;-68
2023/04/28 04:34:54;;;;;;;14.25;9.50;;;;;;;;;;5094018;28;20485;-69
2023/04/28 04:37:20;;;;;;;17.48;10.57;;;;;;;;;;5101446;28;20048;-70
2023/04/28 04:39:46;;;;;;;18.10;10.68;;;;;;;;;;5095888;28;20440;-68
2023/04/28 04:42:12;;;;;;;16.27;10.77;;;;;;;;;;5097835;28;20048;-69
2023/04/28 04:44:38;;;;;;;15.82;10.00;;;;;;;;;;5090552;28;20505;-69
2023/04/28 04:47:05;;;;;;;18.20;11.85;;;;;;;;;;5098669;28;20446;-69
2023/04/28 04:49:31;;;;;;;16.88;10.32;;;;;;;;;;5100393;28;20048;-69
2023/04/28 04:51:58;;;;;;;22.05;12.07;;;;;;;;;;5100985;28;20045;-69
2023/04/28 04:54:24;;;;;;;18.05;11.15;;;;;;;;;;5090323;28;20028;-68
2023/04/28 04:56:51;;;;;;;22.10;10.80;;;;;;;;;;5093263;28;20513;-68
2023/04/28 04:59:17;;;;;;;19.13;11.57;;;;;;;;;;5104444;28;20042;-69
2023/04/28 05:01:43;;;;;;;22.50;12.75;;;;;;;;;;5088524;28;20040;-69
2023/04/28 05:04:09;;;;;;;19.83;10.20;;;;;;;;;;5103389;28;20096;-68
2023/04/28 05:06:36;;;;;;;17.60;10.70;;;;;;;;;;5107745;28;20089;-69
2023/04/28 05:09:02;;;;;;;20.77;10.02;;;;;;;;;;5101915;28;20039;-69
2023/04/28 05:11:28;;;;;;;16.58;10.45;;;;;;;;;;5098084;28;20491;-69
2023/04/28 05:13:54;;;;;;;17.52;10.90;;;;;;;;;;5088713;28;20036;-69
2023/04/28 05:16:20;;;;;;;18.65;10.43;;;;;;;;;;5103548;28;20032;-69
2023/04/28 05:18:46;;;;;;;18.52;10.45;;;;;;;;;;5103050;28;20043;-69
2023/04/28 05:21:12;;;;;;;16.77;10.40;;;;;;;;;;5096034;28;20039;-69
2023/04/28 05:23:38;;;;;;;17.92;11.20;;;;;;;;;;5098249;28;20039;-69
2023/04/28 05:26:05;;;;;;;20.75;11.45;;;;;;;;;;5093701;28;20040;-69
2023/04/28 05:28:31;;;;;;;19.23;12.40;;;;;;;;;;5098773;28;20253;-69
2023/04/28 05:30:57;;;;;;;16.10;10.32;;;;;;;;;;5094463;28;20040;-69
2023/04/28 05:33:23;;;;;;;19.40;10.50;;;;;;;;;;5087884;28;20115;-69
2023/04/28 05:35:50;;;;;;;17.25;9.70;;;;;;;;;;5095453;28;20123;-69
2023/04/28 05:38:16;;;;;;;19.23;11.15;;;;;;;;;;5105769;28;20400;-69
2023/04/28 05:40:42;;;;;;;19.17;10.75;;;;;;;;;;5100252;28;20071;-69
2023/04/28 05:43:09;;;;;;;17.10;10.68;;;;;;;;;;5102265;28;20374;-70
2023/04/28 05:45:35;;;;;;;18.40;10.40;;;;;;;;;;5093993;28;20258;-70
2023/04/28 05:48:01;;;;;;;15.77;9.98;;;;;;;;;;5095542;28;20138;-69
2023/04/28 05:50:27;;;;;;;16.58;10.35;;;;;;;;;;5107003;28;20502;-70
2023/04/28 05:52:53;;;;;;;17.13;10.40;;;;;;;;;;5103225;28;20043;-70
2023/04/28 05:55:20;;;;;;;18.25;10.68;;;;;;;;;;5102695;28;20032;-69
2023/04/28 05:57:46;;;;;;;16.23;11.27;;;;;;;;;;5100804;28;20044;-69
2023/04/28 06:00:13;;;;;;;14.10;9.57;;;;;;;;;;5101038;28;20126;-69
2023/04/28 06:02:39;;;;;;;22.23;10.52;;;;;;;;;;5112586;28;20039;-69
2023/04/28 06:05:07;;;;;;;16.38;9.73;;;;;;;;;;5104742;28;20039;-70
2023/04/28 06:07:33;;;;;;;15.40;10.57;;;;;;;;;;5101041;28;20079;-70
2023/04/28 06:09:59;;;;;;;14.95;10.48;;;;;;;;;;5092045;28;20525;-70
2023/04/28 06:12:25;;;;;;;15.60;10.00;;;;;;;;;;5100626;28;20043;-70
2023/04/28 06:14:54;;;;;;;17.95;10.70;;;;;;;;;;5099960;28;20032;-71
2023/04/28 06:17:20;;;;;;;21.83;11.05;;;;;;;;;;5098543;28;20050;-70
2023/04/28 06:19:46;;;;;;;15.43;9.07;;;;;;;;;;5110843;28;20043;-70
2023/04/28 06:22:12;;;;;;;15.20;9.60;;;;;;;;;;5104206;28;20415;-70
2023/04/28 06:24:40;;;;;;;14.90;9.07;;;;;;;;;;5104688;28;20239;-70
2023/04/28 06:27:06;;;;;;;14.68;9.65;;;;;;;;;;5095377;28;20040;-70
2023/04/28 06:29:33;;;;;;;16.33;10.60;;;;;;;;;;5107799;28;20036;-70
2023/04/28 06:31:59;;;;;;;21.40;9.95;;;;;;;;;;5099824;28;20040;-70
2023/04/28 06:34:29;;;;;;;15.38;9.90;;;;;;;;;;5090892;28;20413;-69
2023/04/28 06:36:57;;;;;;;17.38;9.90;;;;;;;;;;5107975;28;20074;-70
2023/04/28 06:39:23;;;;;;;17.17;9.45;;;;;;;;;;5097900;28;20075;-70
2023/04/28 06:41:50;;;;;;;16.85;9.20;;;;;;;;;;5109714;28;20127;-69
2023/04/28 06:44:16;;;;;;;13.70;8.80;;;;;;;;;;5107619;28;20043;-70
2023/04/28 06:46:42;;;;;;;17.17;11.25;;;;;;;;;;5094977;28;20486;-69
2023/04/28 06:49:08;;;;;;;15.13;9.32;;;;;;;;;;5103479;28;20044;-70
2023/04/28 06:51:35;;;;;;;15.07;9.95;;;;;;;;;;5102983;28;20044;-70
2023/04/28 06:54:01;;;;;;;14.98;9.77;;;;;;;;;;5099207;27;20040;-71
2023/04/28 06:56:27;;;;;;;15.73;9.10;;;;;;;;;;5093066;28;20079;-70
2023/04/28 06:58:55;;;;;;;14.18;10.20;;;;;;;;;;5093811;28;20031;-70
2023/04/28 07:01:22;;;;;;;14.15;9.38;;;;;;;;;;5099487;28;20078;-70
2023/04/28 07:03:48;;;;;;;15.27;10.15;;;;;;;;;;5096257;28;20293;-70
2023/04/28 07:06:15;;;;;;;15.10;9.75;;;;;;;;;;5108180;28;20050;-70
2023/04/28 07:08:44;;;;;;;13.80;9.55;;;;;;;;;;5102839;28;20043;-70
2023/04/28 07:11:10;;;;;;;16.33;9.57;;;;;;;;;;5099234;28;20039;-69
2023/04/28 07:13:36;;;;;;;14.73;9.98;;;;;;;;;;5094107;28;20082;-70
2023/04/28 07:16:04;;;;;;;17.05;9.70;;;;;;;;;;5102415;28;20036;-70
2023/04/28 07:18:30;;;;;;;15.35;10.82;;;;;;;;;;5104547;28;20097;-70
2023/04/28 07:20:56;;;;;;;15.50;10.05;;;;;;;;;;5100234;28;20043;-71
2023/04/28 07:23:22;;;;;;;19.33;10.70;;;;;;;;;;5092007;28;20043;-69
2023/04/28 07:25:49;;;;;;;12.65;9.40;;;;;;;;;;5108711;28;20051;-70
2023/04/28 07:28:15;;;;;;;15.98;9.68;;;;;;;;;;5094709;28;20048;-69
2023/04/28 07:30:41;;;;;;;13.43;9.48;;;;;;;;;;5097719;28;20386;-70
2023/04/28 07:33:07;;;;;;;13.60;9.52;;;;;;;;;;5091202;28;20043;-70
2023/04/28 07:35:33;;;;;;;14.40;9.68;;;;;;;;;;5098292;28;20131;-69
2023/04/28 07:38:00;;;;;;;19.02;11.20;;;;;;;;;;5099486;28;20042;-70
2023/04/28 07:40:26;;;;;;;12.90;8.82;;;;;;;;;;5092473;28;20074;-69
2023/04/28 07:42:52;;;;;;;17.13;10.73;;;;;;;;;;5094454;28;20090;-69
2023/04/28 07:45:18;;;;;;;17.20;9.30;;;;;;;;;;5099970;28;20040;-69
2023/04/28 07:47:44;;;;;;;15.57;10.55;;;;;;;;;;5100820;28;20044;-70
2023/04/28 07:50:11;;;;;;;18.05;10.77;;;;;;;;;;5092927;28;20040;-70
2023/04/28 07:52:37;;;;;;;16.35;11.32;;;;;;;;;;5101448;28;20517;-70
2023/04/28 07:55:03;;;;;;;18.52;11.45;;;;;;;;;;5103252;28;20035;-70
2023/04/28 07:57:30;;;;;;;16.00;10.18;;;;;;;;;;5099031;28;20036;-70
2023/04/28 07:59:56;;;;;;;15.25;9.82;;;;;;;;;;5092411;28;20075;-70
2023/04/28 08:02:22;;;;;;;17.60;9.88;;;;;;;;;;5096973;28;20443;-67
2023/04/28 08:04:48;;;;;;;17.25;10.48;;;;;;;;;;5101715;28;20122;-70
2023/04/28 08:07:14;;;;;;;16.70;10.93;;;;;;;;;;5097505;28;20075;-70
2023/04/28 08:09:45;;;;;;;18.73;10.75;;;;;;;;;;5092313;28;20036;-70
2023/04/28 08:12:12;;;;;;;18.13;10.38;;;;;;;;;;5097900;28;20520;-70
2023/04/28 08:14:38;;;;;;;21.83;10.40;;;;;;;;;;5102470;28;20347;-70
2023/04/28 08:17:04;;;;;;;18.27;10.68;;;;;;;;;;5095856;28;20089;-70
2023/04/28 08:19:30;;;;;;;18.35;11.07;;;;;;;;;;5094540;28;20408;-69
2023/04/28 08:21:56;;;;;;;17.27;10.50;;;;;;;;;;5106665;28;20454;-70
2023/04/28 08:24:23;;;;;;;16.17;9.65;;;;;;;;;;5100198;28;20031;-70
2023/04/28 08:26:49;;;;;;;17.27;10.35;;;;;;;;;;5095801;28;20498;-70
2023/04/28 08:29:15;;;;;;;16.60;11.90;;;;;;;;;;5093165;28;20048;-69
2023/04/28 08:31:42;;;;;;;16.83;11.05;;;;;;;;;;5080528;28;20040;-69
2023/04/28 08:34:08;;;;;;;16.73;9.95;;;;;;;;;;5097089;28;20047;-69
2023/04/28 08:36:34;;;;;;;16.20;11.40;;;;;;;;;;5096495;28;20458;-70
2023/04/28 08:39:02;;;;;;;16.30;11.77;;;;;;;;;;5091192;28;20039;-69
2023/04/28 08:41:31;;;;;;;16.60;11.90;;;;;;;;;;5096277;28;20610;-70
2023/04/28 08:43:58;;;;;;;17.90;11.10;;;;;;;;;;5104737;28;20071;-70
2023/04/28 08:46:27;;;;;;;17.05;10.13;;;;;;;;;;5095546;28;20065;-70
2023/04/28 08:49:00;;;;;;;20.13;11.43;;;;;;;;;;5092451;28;20562;-69
2023/04/28 08:51:30;;;;;;;16.48;11.02;;;;;;;;;;5097920;28;20233;-71
2023/04/28 08:53:57;;;;;;;17.98;10.25;;;;;;;;;;5087995;28;20035;-69
2023/04/28 08:56:24;;;;;;;15.15;10.50;;;;;;;;;;5093542;28;20046;-69
2023/04/28 08:58:51;;;;;;;14.43;10.55;;;;;;;;;;5092132;28;20096;-69
2023/04/28 09:01:17;;;;;;;19.10;11.90;;;;;;;;;;5103671;28;20091;-71
2023/04/28 09:03:44;;;;;;;14.80;9.90;;;;;;;;;;5090585;28;20036;-70
2023/04/28 09:06:10;;;;;;;16.55;10.68;;;;;;;;;;5094211;28;20092;-70
2023/04/28 09:08:36;;;;;;;17.42;10.38;;;;;;;;;;5100272;28;20036;-69
2023/04/28 09:11:07;;;;;;;20.13;10.80;;;;;;;;;;5100804;28;20370;-70
2023/04/28 09:13:33;;;;;;;24.67;11.45;;;;;;;;;;5091286;28;20565;-71
2023/04/28 09:16:01;;;;;;;17.13;11.27;;;;;;;;;;5087578;28;20040;-70
2023/04/28 09:18:28;;;;;;;18.25;11.20;;;;;;;;;;5105885;28;20412;-71
2023/04/28 09:21:03;;;;;;;20.17;11.15;;;;;;;;;;5092481;28;20043;-69
2023/04/28 09:23:29;;;;;;;16.13;10.68;;;;;;;;;;5097390;28;20040;-70
2023/04/28 09:26:06;;;;;;;17.98;11.00;;;;;;;;;;5101557;28;20040;-70
2023/04/28 09:28:33;;;;;;;19.05;11.00;;;;;;;;;;5093575;28;20044;-70
2023/04/28 09:30:59;;;;;;;15.85;10.45;;;;;;;;;;5090614;28;20032;-69
2023/04/28 09:33:26;;;;;;;15.00;10.80;;;;;;;;;;5099860;28;20111;-70
2023/04/28 09:35:52;;;;;;;17.10;11.40;;;;;;;;;;5100624;28;20127;-70
2023/04/28 09:38:19;;;;;;;16.27;10.75;;;;;;;;;;5094989;28;20039;-69
2023/04/28 09:40:54;;;;;;;16.10;10.25;;;;;;;;;;5101424;28;20085;-69
2023/04/28 09:43:27;;;;;;;15.65;11.32;;;;;;;;;;5091325;28;20771;-69
2023/04/28 09:45:54;;;;;;;18.00;11.50;;;;;;;;;;5091925;28;20078;-69
2023/04/28 09:48:35;;;;;;;16.55;12.75;;;;;;;;;;5094347;28;20052;-70
2023/04/28 09:51:03;;;;;;;19.40;11.48;;;;;;;;;;5099513;28;20102;-70
2023/04/28 09:53:29;;;;;;;16.80;11.88;;;;;;;;;;5104496;28;20043;-69
2023/04/28 09:55:57;;;;;;;17.88;11.93;;;;;;;;;;5103713;28;20043;-70
2023/04/28 09:58:24;;;;;;;16.45;11.68;;;;;;;;;;5098758;28;20050;-70
2023/04/28 10:00:54;;;;;;;17.60;12.00;;;;;;;;;;5091593;28;20072;-70
2023/04/28 10:03:22;;;;;;;16.42;11.52;;;;;;;;;;5102125;28;20078;-70
2023/04/28 10:05:49;;;;;;;20.35;11.93;;;;;;;;;;5093698;28;20093;-70
2023/04/28 10:08:16;;;;;;;18.42;12.60;;;;;;;;;;5090486;28;20057;-70
2023/04/28 10:10:43;;;;;;;20.63;12.57;;;;;;;;;;5089900;28;20075;-70
2023/04/28 10:13:09;;;;;;;19.25;13.65;;;;;;;;;;5088589;28;20366;-70
2023/04/28 10:15:36;;;;;;;16.13;11.45;;;;;;;;;;5101205;28;20396;-70
2023/04/28 10:18:03;;;;;;;17.48;12.48;;;;;;;;;;5090995;28;20036;-70
2023/04/28 10:20:30;;;;;;;20.08;12.77;;;;;;;;;;5092638;28;20044;-69
2023/04/28 10:22:56;;;;;;;18.45;13.23;;;;;;;;;;5090496;28;20054;-69
2023/04/28 10:25:22;;;;;;;17.45;11.43;;;;;;;;;;5101264;28;20507;-70
2023/04/28 10:27:49;;;;;;;19.00;14.38;;;;;;;;;;5091745;28;20091;-69
2023/04/28 10:30:17;;;;;;;18.13;12.20;;;;;;;;;;5102801;28;20089;-69
2023/04/28 10:32:47;;;;;;;20.27;14.65;;;;;;;;;;5097823;28;20051;-70
2023/04/28 10:35:22;;;;;;;20.13;13.35;;;;;;;;;;5095929;28;20031;-69
2023/04/28 10:38:07;;;;;;;18.55;13.90;;;;;;;;;;5099714;28;20047;-69
2023/04/28 10:40:33;;;;;;;21.08;13.02;;;;;;;;;;5094515;28;20044;-69
2023/04/28 10:43:00;;;;;;;16.65;12.02;;;;;;;;;;5106744;28;20046;-70
2023/04/28 10:45:49;;;;;;;17.80;12.13;;;;;;;;;;5105791;28;20039;-70
2023/04/28 10:48:16;;;;;;;19.77;12.63;;;;;;;;;;5095672;28;20134;-70
2023/04/28 10:51:06;;;;;;;21.85;12.85;;;;;;;;;;5097968;28;20055;-69
2023/04/28 10:53:45;;;;;;;20.35;13.45;;;;;;;;;;5087599;28;20151;-70
2023/04/28 10:56:27;;;;;;;17.08;13.13;;;;;;;;;;5094636;28;20062;-69
2023/04/28 10:58:53;;;;;;;21.70;12.88;;;;;;;;;;5094376;28;20038;-70
2023/04/28 11:01:19;;;;;;;16.38;13.20;;;;;;;;;;5107486;28;20067;-70
2023/04/28 11:04:06;;;;;;;17.38;12.43;;;;;;;;;;5091579;28;20039;-69
2023/04/28 11:06:35;;;;;;;21.63;14.60;;;;;;;;;;5096441;28;20051;-70
2023/04/28 11:09:03;;;;;;;20.88;13.90;;;;;;;;;;5101162;28;20115;-69
2023/04/28 11:11:35;;;;;;;20.35;13.48;;;;;;;;;;5097901;28;20031;-70
2023/04/28 11:14:19;;;;;;;18.70;12.40;;;;;;;;;;5106064;28;20097;-70
2023/04/28 11:16:49;;;;;;;18.20;13.48;;;;;;;;;;5097394;28;20192;-70
2023/04/28 11:19:18;;;;;;;17.80;12.90;;;;;;;;;;5099884;28;20046;-69
2023/04/28 11:21:44;;;;;;;15.85;12.05;;;;;;;;;;5104545;28;20051;-70
2023/04/28 11:24:11;;;;;;;18.95;13.30;;;;;;;;;;5094766;28;20040;-69
2023/04/28 11:26:38;;;;;;;22.05;15.05;;;;;;;;;;5107035;28;20044;-69
2023/04/28 11:29:04;;;;;;;18.90;14.10;;;;;;;;;;5100378;28;20418;-70
2023/04/28 11:31:31;;;;;;;17.92;13.60;;;;;;;;;;5094061;28;20039;-69
2023/04/28 11:33:57;;;;;;;19.33;13.73;;;;;;;;;;5093915;28;20111;-69
2023/04/28 11:36:34;;;;;;;18.88;13.45;;;;;;;;;;5096250;27;20120;-69
2023/04/28 11:39:00;;;;;;;23.45;13.95;;;;;;;;;;5107523;28;20071;-70
2023/04/28 11:41:26;;;;;;;25.40;13.38;;;;;;;;;;5093635;28;20117;-70
2023/04/28 11:43:53;;;;;;;18.77;12.43;;;;;;;;;;5094490;28;20048;-70
2023/04/28 11:46:20;;;;;;;19.48;13.30;;;;;;;;;;5094494;28;20040;-70
2023/04/28 11:48:47;;;;;;;19.88;14.23;;;;;;;;;;5098897;28;20043;-70
2023/04/28 11:51:32;;;;;;;21.40;14.55;;;;;;;;;;5105099;28;20051;-70
2023/04/28 11:53:58;;;;;;;16.67;12.23;;;;;;;;;;5093844;28;20119;-70
2023/04/28 11:56:25;;;;;;;17.92;12.52;;;;;;;;;;5101553;28;20032;-70
2023/04/28 11:59:04;;;;;;;19.55;14.93;;;;;;;;;;5106255;28;20035;-70
2023/04/28 12:01:31;;;;;;;18.77;13.70;;;;;;;;;;5095282;28;20032;-69
2023/04/28 12:03:58;;;;;;;23.15;12.75;;;9.00;99.90;;;;;;5096089;28;20169;-70
2023/04/28 12:06:24;;;;;;;24.08;13.93;;;;;;;;;;5104215;28;20040;-69
2023/04/28 12:08:53;;;;;;;22.10;13.73;;;;;;;;;;5098742;28;20044;-69
2023/04/28 12:11:20;;;;;;;19.63;13.55;;;;;;;;;;5093014;28;20044;-69
2023/04/28 12:14:02;;;;;;;19.13;14.10;;;;;;;;;;5096523;28;20044;-70
2023/04/28 12:16:41;;;;;;;21.17;15.17;;;;;;;;;;5098498;28;20043;-70
2023/04/28 12:19:09;;;;;;;21.48;12.73;;;;;;;;;;5093694;28;20046;-69
2023/04/28 12:21:36;;;;;;;20.20;14.50;;;;;;;;;;5107887;28;20115;-70
2023/04/28 12:24:12;;;;;;;19.52;14.25;;;;;;;;;;5100673;28;20491;-70
2023/04/28 12:26:39;;;;;;;18.65;14.02;;;;;;;;;;5094682;28;20044;-69
2023/04/28 12:29:05;;;;;;;17.85;13.25;;;;;;;;;;5091834;28;20035;-70
2023/04/28 12:31:31;;;;;;;17.30;13.45;;;;;;;;;;5096336;28;20040;-70
2023/04/28 12:33:57;;;;;;;21.67;14.98;;;;;;;;;;5095952;28;20032;-69
2023/04/28 12:36:23;;;;;;;18.52;14.02;;;;;;;;;;5096863;28;20032;-70
2023/04/28 12:38:50;;;;;;;18.80;12.50;;;;;;;;;;5092417;28;20617;-70
2023/04/28 12:41:16;;;;;;;20.58;13.70;;;;;;;;;;5094552;28;20118;-70
2023/04/28 12:43:43;;;;;;;23.85;14.88;;;;;;;;;;5106118;28;20130;-70
2023/04/28 12:46:13;;;;;;;21.52;13.50;;;;;;;;;;5097039;28;20040;-69
2023/04/28 12:48:39;;;;;;;19.90;14.20;;;;;;;;;;5093912;28;20082;-70
2023/04/28 12:51:05;;;;;;;21.98;13.80;;;;;;;;;;5096621;28;20470;-70
2023/04/28 12:53:31;;;;;;;17.15;14.20;;;;;;;;;;5100989;28;20536;-70
2023/04/28 12:55:58;;;;;;;21.35;14.13;;;;;;;;;;5093933;28;20397;-69
2023/04/28 12:58:24;;;;;;;22.75;15.45;;;;;;;;;;5090009;28;20047;-70
2023/04/28 13:00:50;;;;;;;21.90;15.13;;;;;;;;;;5093884;28;20047;-69
2023/04/28 13:03:17;;;;;;;16.60;12.30;;;;;;;;;;5094557;28;20039;-70
2023/04/28 13:05:43;;;;;;;24.33;17.73;;;;;;;;;;5101563;28;20396;-70
2023/04/28 13:08:09;;;;;;;21.98;15.10;;;;;;;;;;5103480;28;20412;-70
2023/04/28 13:10:36;;;;;;;18.65;14.13;;;;;;;;;;5102565;28;20093;-69
2023/04/28 13:13:04;;;;;;;18.52;14.30;;;;;;;;;;5102266;28;20036;-69
2023/04/28 13:15:30;;;;;;;20.58;14.70;;;;;;;;;;5105139;28;20122;-70
2023/04/28 13:17:58;;;;;;;26.48;15.90;;;;;;;;;;5098266;28;20031;-70
2023/04/28 13:20:24;;;;;;;18.70;15.02;;;;;;;;;;5093225;28;20047;-70
2023/04/28 13:22:51;;;;;;;20.95;15.45;;;;;;;;;;5093306;28;20036;-69
2023/04/28 13:25:16;;;;;;;18.45;15.18;;;10.60;99.90;;;;;;5099597;28;20122;-69
2023/04/28 13:27:42;;;;;;;22.33;14.57;;;11.30;99.90;;;;;;5100080;28;20123;-69
2023/04/28 13:30:08;;;;;;;24.73;16.80;;;11.30;99.90;;;;;;5094683;28;20076;-70
2023/04/28 13:32:34;;;;;;;17.48;13.77;;;11.30;99.90;;;;;;5090281;28;20036;-70
2023/04/28 13:35:01;;;;;;;22.80;14.70;;;11.30;99.90;;;;;;5091920;28;20464;-70
2023/04/28 13:37:26;;;;;;;18.13;13.63;;;11.30;99.90;;;;;;5101599;28;20048;-70
2023/04/28 13:39:52;;;;;;;18.48;15.27;;;11.30;99.90;;;;;;5103861;28;20515;-70
2023/04/28 13:42:18;;;;;;;18.83;15.05;;;11.30;99.90;;;;;;5093941;28;20078;-70
2023/04/28 13:44:45;;;;;;;20.35;14.95;;;11.30;99.90;;;;;;5094508;28;20032;-70
2023/04/28 13:47:11;;;;;;;22.23;15.63;;;11.30;99.90;;;;;;5091513;28;20044;-70
2023/04/28 13:49:38;;;;;;;18.42;14.70;;;11.30;99.90;;;;;;5097850;28;20211;-70
2023/04/28 13:52:04;;;;;;;19.92;14.70;;;11.30;99.90;;;;;;5103028;28;20477;-70
2023/04/28 13:54:30;;;;;;;22.50;17.52;;;11.30;99.90;;;;;;5097025;28;20067;-69
2023/04/28 13:56:56;;;;;;;21.85;16.73;;;11.30;99.90;;;;;;5101581;28;20038;-69
2023/04/28 13:59:22;;;;;;;22.90;16.13;;;11.20;99.90;;;;;;5095432;28;20036;-70
2023/04/28 14:01:47;;;;;;;18.77;15.18;;;11.20;99.90;;;;;;5096441;28;20520;-70
2023/04/28 14:04:13;;;;;;;20.60;14.85;;;11.20;99.90;;;;;;5100756;28;20027;-69
2023/04/28 14:06:39;;;;;;;20.45;15.70;;;11.20;99.90;;;;;;5101813;28;20513;-70
2023/04/28 14:09:05;;;;;;;19.17;16.10;;;11.20;99.90;;;;;;5105837;28;20035;-70
2023/04/28 14:11:31;;;;;;;17.42;15.02;;;11.20;99.90;;;;;;5108730;28;20032;-69
2023/04/28 14:13:56;;;;;;;20.67;15.98;;;11.20;99.90;;;;;;5105270;28;20115;-71
2023/04/28 14:16:22;;;;;;;20.13;14.65;;;11.10;99.90;;;;;;5101362;28;20254;-70